Time;durP1;ratioP1;P1;durP2;ratioP2;P2;SDS_P1;SDS_P2;PMS_P1;PMS_P2;Temp;Humidity;BMP_temperature;BMP_pressure;BME280_temperature;BME280_humidity;BME280_pressure;Samples;Min_cycle;Max_cycle;Signal;HPM_P1;HPM_P2
2023/10/26 00:00:23;;;;;;;;;;;;;;;26.68;34.89;99714.22;5076351;28;1082;-40
2023/10/26 00:02:48;;;;;;;;;;;;;;;26.63;35.09;99692.41;5076015;28;1102;-42
2023/10/26 00:05:14;;;;;;;;;;;;;;;26.67;35.16;99680.19;5058419;28;1902;-40
2023/10/26 00:07:40;;;;;;;;;;;;;;;26.72;35.29;99666.91;5067479;28;1028;-42
2023/10/26 00:10:06;;;;;;;;;;;;;;;26.68;35.10;99667.50;5062834;28;1051;-42
2023/10/26 00:12:31;;;;;;;;;;;;;;;26.68;35.31;99657.56;5076012;28;1030;-41
2023/10/26 00:14:57;;;;;;;;;;;;;;;26.60;35.23;99645.13;5058152;28;1003;-43
2023/10/26 00:17:23;;;;;;;;;;;;;;;26.42;35.28;99624.16;5061360;28;1116;-42
2023/10/26 00:19:48;;;;;;;;;;;;;;;26.61;35.32;99651.34;5068843;28;1935;-41
2023/10/26 00:22:14;;;;;;;;;;;;;;;26.51;35.79;99646.34;5056168;28;1043;-42
2023/10/26 00:24:39;;;;;;;;;;;;;;;26.56;36.31;99643.03;5060652;28;1984;-41
2023/10/26 00:27:05;;;;;;;;;;;;;;;26.50;36.25;99656.31;5064651;28;1134;-42
2023/10/26 00:29:30;;;;;;;;;;;;;;;26.57;36.16;99679.75;5054314;28;1296;-42
2023/10/26 00:31:56;;;;;;;;;;;;;;;26.52;36.45;99686.63;5076142;28;1004;-42
2023/10/26 00:34:21;;;;;;;;;;;;;;;26.63;35.99;99695.94;5039736;28;1110;-42
2023/10/26 00:36:47;;;;;;;;;;;;;;;26.55;36.46;99698.00;5049420;28;1151;-39
2023/10/26 00:39:12;;;;;;;;;;;;;;;26.50;36.32;99696.75;5075540;28;1084;-40
2023/10/26 00:41:38;;;;;;;;;;;;;;;26.48;36.64;99690.75;5051839;28;1387;-42
2023/10/26 00:44:04;;;;;;;;;;;;;;;26.61;36.03;99681.84;5050943;28;1138;-41
2023/10/26 00:46:30;;;;;;;;;;;;;;;26.57;36.00;99696.78;5037717;28;1981;-42
2023/10/26 00:48:55;;;;;;;;;;;;;;;26.57;36.33;99702.16;5073357;28;1059;-42
2023/10/26 00:51:21;;;;;;;;;;;;;;;26.46;36.39;99697.38;5058051;28;2490;-41
2023/10/26 00:53:47;;;;;;;;;;;;;;;26.56;35.84;99691.59;5044927;28;1091;-39
2023/10/26 00:56:12;;;;;;;;;;;;;;;26.57;36.33;99679.75;5075875;28;1015;-42
2023/10/26 00:58:38;;;;;;;;;;;;;;;26.59;36.37;99693.88;5057404;28;963;-41
2023/10/26 01:01:03;;;;;;;;;;;;;;;26.45;36.45;99685.75;5079531;28;1018;-40
2023/10/26 01:03:30;;;;;;;;;;;;;;;26.52;36.32;99683.91;5048714;28;1150;-42
2023/10/26 01:05:55;;;;;;;;;;;;;;;26.54;36.29;99683.72;5075739;28;1909;-42
2023/10/26 01:08:21;;;;;;;;;;;;;;;26.62;36.27;99694.31;5076090;28;1062;-42
2023/10/26 01:10:46;;;;;;;;;;;;;;;26.71;36.25;99703.00;5059557;28;1138;-42
2023/10/26 01:13:13;;;;;;;;;;;;;;;26.91;35.28;99729.16;5059602;28;1055;-41
2023/10/26 01:15:39;;;;;;;;;;;;;;;26.75;36.16;99725.84;5041618;28;1871;-40
2023/10/26 01:18:05;;;;;;;;;;;;;;;26.64;36.52;99737.25;5050611;28;1051;-41
2023/10/26 01:20:31;;;;;;;;;;;;;;;26.69;36.68;99740.16;5051185;28;1825;-42
2023/10/26 01:22:56;;;;;;;;;;;;;;;26.53;36.69;99744.91;5078921;28;1098;-41
2023/10/26 01:25:22;;;;;;;;;;;;;;;26.48;36.80;99747.38;5069521;28;1891;-41
2023/10/26 01:27:47;;;;;;;;;;;;;;;26.68;35.95;99756.53;5062427;28;1043;-39
2023/10/26 01:30:13;;;;;;;;;;;;;;;26.62;36.22;99744.72;5071551;28;1007;-41
2023/10/26 01:32:39;;;;;;;;;;;;;;;26.74;35.80;99751.16;5075554;28;1055;-41
2023/10/26 01:35:05;;;;;;;;;;;;;;;26.71;35.87;99761.53;5069449;28;1078;-39
2023/10/26 01:37:30;;;;;;;;;;;;;;;26.70;35.99;99757.16;5062230;28;1096;-37
2023/10/26 01:39:56;;;;;;;;;;;;;;;26.74;36.11;99758.44;5051026;28;1123;-43
2023/10/26 01:42:21;;;;;;;;;;;;;;;26.60;36.40;99754.88;5067252;28;1167;-40
2023/10/26 01:44:47;;;;;;;;;;;;;;;26.60;36.10;99746.78;5068563;28;1991;-41
2023/10/26 01:47:13;;;;;;;;;;;;;;;26.66;35.78;99735.16;5047238;28;1110;-42
2023/10/26 01:49:38;;;;;;;;;;;;;;;26.55;35.91;99728.50;5051043;28;2254;-40
2023/10/26 01:52:04;;;;;;;;;;;;;;;26.63;35.97;99725.63;5075441;28;1203;-42
2023/10/26 01:54:31;;;;;;;;;;;;;;;26.59;35.71;99735.13;5051438;28;1074;-42
2023/10/26 01:56:59;;;;;;;;;;;;;;;26.63;36.11;99740.97;5044187;28;1141;-41
2023/10/26 01:59:24;;;;;;;;;;;;;;;26.54;35.96;99740.34;5060670;28;1279;-42
2023/10/26 02:01:50;;;;;;;;;;;;;;;26.49;36.06;99746.31;5057116;28;1027;-41
2023/10/26 02:04:15;;;;;;;;;;;;;;;26.69;35.37;99759.06;5050440;28;1215;-42
2023/10/26 02:06:41;;;;;;;;;;;;;;;26.59;35.74;99739.72;5051116;28;1906;-41
2023/10/26 02:09:06;;;;;;;;;;;;;;;26.61;35.79;99737.66;5067906;28;1036;-42
2023/10/26 02:11:32;;;;;;;;;;;;;;;26.53;35.49;99749.44;5063878;28;1086;-42
2023/10/26 02:13:58;;;;;;;;;;;;;;;26.46;35.98;99754.00;5060801;28;1317;-42
2023/10/26 02:16:24;;;;;;;;;;;;;;;26.47;35.44;99753.81;5057553;28;1124;-41
2023/10/26 02:18:49;;;;;;;;;;;;;;;26.49;35.68;99746.31;5040005;28;1092;-43
2023/10/26 02:21:15;;;;;;;;;;;;;;;26.54;35.73;99748.44;5074075;28;2254;-42
2023/10/26 02:23:43;;;;;;;;;;;;;;;26.55;35.63;99742.00;5068474;28;1129;-41
2023/10/26 02:26:09;;;;;;;;;;;;;;;26.43;36.06;99747.16;5058082;28;1902;-42
2023/10/26 02:28:34;;;;;;;;;;;;;;;26.47;35.75;99751.13;5050096;28;1011;-42
2023/10/26 02:31:00;;;;;;;;;;;;;;;26.53;35.31;99757.53;5052484;28;1229;-42
2023/10/26 02:33:26;;;;;;;;;;;;;;;26.58;35.32;99762.31;5077874;28;1110;-42
2023/10/26 02:35:51;;;;;;;;;;;;;;;26.52;35.47;99762.13;5074354;28;1003;-43
2023/10/26 02:38:17;;;;;;;;;;;;;;;26.60;34.87;99758.41;5068198;28;1020;-43
2023/10/26 02:40:42;;;;;;;;;;;;;;;26.50;35.15;99756.09;5074773;28;1087;-43
2023/10/26 02:43:08;;;;;;;;;;;;;;;26.49;35.51;99754.41;5068108;28;857;-42
2023/10/26 02:45:34;;;;;;;;;;;;;;;26.40;35.43;99750.25;5061531;28;1975;-42
2023/10/26 02:47:59;;;;;;;;;;;;;;;26.38;35.70;99747.75;5067693;28;1032;-42
2023/10/26 02:50:25;;;;;;;;;;;;;;;26.43;35.38;99759.78;5061467;28;2294;-41
2023/10/26 02:52:50;;;;;;;;;;;;;;;26.49;35.20;99754.41;5066870;28;1012;-42
2023/10/26 02:55:16;;;;;;;;;;;;;;;26.36;35.46;99752.50;5071870;28;1071;-42
2023/10/26 02:57:42;;;;;;;;;;;;;;;26.35;35.45;99756.25;5077834;28;1027;-43
2023/10/26 03:00:08;;;;;;;;;;;;;;;26.41;34.96;99749.19;5077254;28;1015;-42
2023/10/26 03:02:34;;;;;;;;;;;;;;;26.33;35.33;99757.47;5068560;28;1199;-43
2023/10/26 03:05:00;;;;;;;;;;;;;;;26.36;35.46;99747.13;5072990;28;1976;-41
2023/10/26 03:07:26;;;;;;;;;;;;;;;26.51;35.17;99754.22;5056441;28;1053;-42
2023/10/26 03:09:51;;;;;;;;;;;;;;;26.49;35.31;99757.09;5076906;28;1011;-41
2023/10/26 03:12:18;;;;;;;;;;;;;;;26.25;35.47;99751.22;5050942;28;1151;-42
2023/10/26 03:14:43;;;;;;;;;;;;;;;26.62;34.97;99750.09;5057155;28;1092;-43
2023/10/26 03:17:10;;;;;;;;;;;;;;;26.38;34.99;99746.91;5056766;28;1191;-42
2023/10/26 03:19:36;;;;;;;;;;;;;;;26.38;35.05;99742.38;5049428;28;2253;-43
2023/10/26 03:22:01;;;;;;;;;;;;;;;26.43;34.84;99741.75;5057153;28;993;-42
2023/10/26 03:24:27;;;;;;;;;;;;;;;26.43;35.03;99736.34;5070596;28;1981;-41
2023/10/26 03:26:53;;;;;;;;;;;;;;;26.31;35.26;99743.34;5068122;28;1459;-42
2023/10/26 03:29:21;;;;;;;;;;;;;;;26.40;34.94;99734.91;5056945;28;1134;-42
2023/10/26 03:31:46;;;;;;;;;;;;;;;26.85;34.59;99746.19;5058208;28;908;-44
2023/10/26 03:34:12;;;;;;;;;;;;;;;26.79;34.60;99745.16;5071286;28;1090;-42
2023/10/26 03:36:37;;;;;;;;;;;;;;;26.62;34.66;99752.81;5068749;28;1011;-41
2023/10/26 03:39:03;;;;;;;;;;;;;;;26.69;34.14;99733.94;5057906;28;1020;-42
2023/10/26 03:41:28;;;;;;;;;;;;;;;26.43;35.68;99751.69;5050656;28;1346;-43
2023/10/26 03:43:55;;;;;;;;;;;;;;;25.70;36.67;99743.91;5064893;28;1114;-44
2023/10/26 03:46:21;;;;;;;;;;;;;;;25.79;36.68;99742.69;5058825;28;1910;-42
2023/10/26 03:48:46;;;;;;;;;;;;;;;25.77;36.83;99743.94;5056627;28;1071;-44
2023/10/26 03:51:13;;;;;;;;;;;;;;;25.67;36.90;99745.09;5067407;28;2349;-43
2023/10/26 03:53:39;;;;;;;;;;;;;;;25.71;36.84;99744.75;5042615;28;1265;-44
2023/10/26 03:56:05;;;;;;;;;;;;;;;25.63;38.82;99751.09;5044326;28;2145;-40
2023/10/26 03:58:31;;;;;;;;;;;;;;;25.31;35.13;99755.00;5056680;28;1051;-36
2023/10/26 04:00:57;;;;;;;;;;;;;;;25.59;33.80;99757.88;5066947;28;1031;-36
2023/10/26 04:03:23;;;;;;;;;;;;;;;25.87;34.73;99749.81;5061742;28;1110;-41
2023/10/26 04:05:49;;;;;;;;;;;;;;;25.70;35.73;99754.66;5058911;28;1972;-39
2023/10/26 04:08:14;;;;;;;;;;;;;;;24.67;38.49;99764.72;5059617;28;1448;-40
2023/10/26 04:10:41;;;;;;;;;;;;;;;24.56;38.79;99750.75;5065750;28;988;-41
2023/10/26 04:13:06;;;;;;;;;;;;;;;24.76;38.34;99751.97;5054766;28;1063;-38
2023/10/26 04:15:32;;;;;;;;;;;;;;;25.02;37.74;99745.22;5055522;28;1039;-37
2023/10/26 04:17:58;;;;;;;;;;;;;;;25.29;37.11;99748.97;5071066;28;1194;-40
2023/10/26 04:20:23;;;;;;;;;;;;;;;25.19;38.14;99754.69;5069026;28;1920;-40
2023/10/26 04:22:49;;;;;;;;;;;;;;;25.25;38.54;99753.09;5073299;28;1040;-42
2023/10/26 04:25:14;;;;;;;;;;;;;;;25.58;37.37;99748.97;5055816;28;1959;-43
2023/10/26 04:27:40;;;;;;;;;;;;;;;25.67;36.59;99742.41;5072105;28;1115;-43
2023/10/26 04:30:06;;;;;;;;;;;;;;;25.79;36.61;99742.69;5072667;28;1111;-42
2023/10/26 04:32:32;;;;;;;;;;;;;;;25.76;36.59;99734.16;5064995;28;1086;-42
2023/10/26 04:34:57;;;;;;;;;;;;;;;25.80;36.48;99740.84;5071315;28;1283;-42
2023/10/26 04:37:23;;;;;;;;;;;;;;;25.91;36.27;99742.97;5065454;28;1362;-41
2023/10/26 04:39:48;;;;;;;;;;;;;;;26.00;36.16;99746.34;5067590;28;1044;-41
2023/10/26 04:42:14;;;;;;;;;;;;;;;25.94;36.30;99751.69;5061302;28;874;-43
2023/10/26 04:44:39;;;;;;;;;;;;;;;25.64;36.38;99748.19;5066567;28;1914;-42
2023/10/26 04:47:05;;;;;;;;;;;;;;;25.76;36.25;99747.63;5056830;28;992;-44
2023/10/26 04:49:31;;;;;;;;;;;;;;;25.71;36.89;99750.13;5040553;28;1999;-41
2023/10/26 04:51:56;;;;;;;;;;;;;;;25.88;36.94;99737.97;5058114;28;1071;-42
2023/10/26 04:54:22;;;;;;;;;;;;;;;25.94;37.16;99747.16;5061928;28;1253;-40
2023/10/26 04:56:47;;;;;;;;;;;;;;;26.10;36.43;99750.50;5055200;28;907;-46
2023/10/26 04:59:13;;;;;;;;;;;;;;;26.31;35.39;99764.91;5071328;28;1123;-46
2023/10/26 05:01:38;;;;;;;;;;;;;;;26.21;35.80;99768.81;5064558;28;1056;-49
2023/10/26 05:04:04;;;;;;;;;;;;;;;26.26;36.12;99776.28;5064125;28;1163;-45
2023/10/26 05:06:29;;;;;;;;;;;;;;;26.34;36.07;99784.22;5068630;28;1983;-41
2023/10/26 05:08:55;;;;;;;;;;;;;;;26.34;35.51;99786.13;5056749;28;879;-37
2023/10/26 05:11:20;;;;;;;;;;;;;;;26.23;35.95;99795.56;5055359;28;1156;-39
2023/10/26 05:13:48;;;;;;;;;;;;;;;26.33;36.39;99801.44;5055264;28;1008;-39
2023/10/26 05:16:13;;;;;;;;;;;;;;;26.34;35.90;99802.28;5073116;28;1008;-43
2023/10/26 05:18:38;;;;;;;;;;;;;;;26.42;35.41;99812.91;5064604;28;1359;-41
2023/10/26 05:21:04;;;;;;;;;;;;;;;26.23;36.26;99817.97;5071128;28;1981;-38
2023/10/26 05:23:29;;;;;;;;;;;;;;;26.08;37.03;99809.16;5067421;28;1266;-37
2023/10/26 05:25:55;;;;;;;;;;;;;;;26.50;36.11;99809.19;5061683;28;1902;-43
2023/10/26 05:28:20;;;;;;;;;;;;;;;26.27;36.28;99805.75;5061775;28;1038;-40
2023/10/26 05:30:46;;;;;;;;;;;;;;;24.93;39.14;99798.31;5061455;28;1040;-42
2023/10/26 05:33:11;;;;;;;;;;;;;;;24.85;39.49;99796.56;5067858;28;1172;-40
2023/10/26 05:35:38;;;;;;;;;;;;;;;25.14;39.03;99797.47;5063893;28;1183;-43
2023/10/26 05:38:04;;;;;;;;;;;;;;;25.55;38.30;99805.91;5071071;28;1127;-37
2023/10/26 05:40:30;;;;;;;;;;;;;;;25.64;37.91;99807.44;5061309;28;1044;-42
2023/10/26 05:42:55;;;;;;;;;;;;;;;25.91;37.67;99809.50;5063677;28;1091;-41
2023/10/26 05:45:21;;;;;;;;;;;;;;;26.00;37.07;99800.22;5062186;28;2324;-41
2023/10/26 05:47:52;;;;;;;;;;;;;;;26.02;37.51;99802.72;5077660;28;1011;-43
2023/10/26 05:50:18;;;;;;;;;;;;;;;26.12;37.46;99805.06;5066458;28;1777;-36
2023/10/26 05:52:44;;;;;;;;;;;;;;;26.34;37.44;99811.19;5064721;28;1137;-39
2023/10/26 05:55:09;;;;;;;;;;;;;;;26.40;37.22;99809.56;5069095;28;1151;-41
2023/10/26 05:57:35;;;;;;;;;;;;;;;26.60;37.00;99816.91;5072489;28;1185;-40
2023/10/26 06:00:00;;;;;;;;;;;;;;;26.73;37.93;99802.63;5060362;28;1004;-47
2023/10/26 06:02:26;;;;;;;;;;;;;;;26.98;37.25;99808.28;5063460;28;1274;-38
2023/10/26 06:04:51;;;;;;;;;;;;;;;26.61;37.68;99803.22;5058316;28;1983;-40
2023/10/26 06:07:17;;;;;;;;;;;;;;;26.36;37.64;99787.56;5040384;28;1214;-40
2023/10/26 06:09:42;;;;;;;;;;;;;;;26.38;38.31;99804.38;5057993;28;883;-40
2023/10/26 06:12:08;;;;;;;;;;;;;;;25.85;39.22;99810.28;5057796;28;1016;-37
2023/10/26 06:14:33;;;;;;;;;;;;;;;25.60;39.93;99821.47;5059286;28;1505;-35
2023/10/26 06:16:59;;;;;;;;;;;;;;;25.33;40.67;99811.31;5078168;28;1068;-40
2023/10/26 06:19:24;;;;;;;;;;;;;;;25.39;40.62;99810.53;5068660;28;2126;-42
2023/10/26 06:21:50;;;;;;;;;;;;;;;25.19;41.59;99807.69;5071565;28;1116;-41
2023/10/26 06:24:16;;;;;;;;;;;;;;;25.92;39.71;99809.28;5058889;28;904;-42
2023/10/26 06:26:41;;;;;;;;;;;;;;;26.44;38.66;99812.69;5073350;28;1975;-43
2023/10/26 06:29:07;;;;;;;;;;;;;;;26.75;37.75;99809.50;5065355;28;1111;-42
2023/10/26 06:31:32;;;;;;;;;;;;;;;26.92;37.32;99819.06;5064155;28;1127;-42
2023/10/26 06:33:58;;;;;;;;;;;;;;;27.27;37.04;99821.66;5058750;28;898;-42
2023/10/26 06:36:23;;;;;;;;;;;;;;;27.10;36.92;99818.50;5057922;28;1039;-43
2023/10/26 06:38:48;;;;;;;;;;;;;;;27.02;37.30;99820.38;5068383;28;1059;-38
2023/10/26 06:41:14;;;;;;;;;;;;;;;27.19;36.81;99825.38;5076642;28;1058;-43
2023/10/26 06:43:39;;;;;;;;;;;;;;;27.49;36.48;99818.75;5072915;28;1183;-43
2023/10/26 06:46:05;;;;;;;;;;;;;;;27.11;36.91;99817.47;5071030;28;1918;-40
2023/10/26 06:48:31;;;;;;;;;;;;;;;27.27;36.75;99818.94;5062734;28;1424;-40
2023/10/26 06:51:00;;;;;;;;;;;;;;;27.46;36.67;99808.34;5067122;28;1929;-42
2023/10/26 06:53:25;;;;;;;;;;;;;;;27.47;36.42;99815.41;5064572;28;1047;-44
2023/10/26 06:55:51;;;;;;;;;;;;;;;27.31;36.95;99812.06;5064808;28;1221;-42
2023/10/26 06:58:17;;;;;;;;;;;;;;;27.11;37.93;99809.38;5056715;28;1047;-43
2023/10/26 07:00:42;;;;;;;;;;;;;;;27.24;37.52;99817.47;5057447;28;1000;-43
2023/10/26 07:03:08;;;;;;;;;;;;;;;27.38;36.93;99820.19;5071386;28;1067;-41
2023/10/26 07:05:33;;;;;;;;;;;;;;;27.51;36.87;99822.03;5057585;28;1910;-44
2023/10/26 07:07:59;;;;;;;;;;;;;;;27.55;36.89;99825.16;5059870;28;1128;-44
2023/10/26 07:10:28;;;;;;;;;;;;;;;27.85;36.47;99822.88;5067419;28;1332;-44
2023/10/26 07:12:53;;;;;;;;;;;;;;;28.06;35.87;99828.25;5044774;28;912;-44
2023/10/26 07:15:19;;;;;;;;;;;;;;;28.27;35.40;99837.97;5058496;28;1139;-44
2023/10/26 07:17:45;;;;;;;;;;;;;;;28.30;35.45;99828.59;5054576;28;1214;-44
2023/10/26 07:20:12;;;;;;;;;;;;;;;28.43;35.38;99833.13;5038234;28;2173;-44
2023/10/26 07:22:38;;;;;;;;;;;;;;;27.96;36.29;99834.09;5044473;28;1043;-44
2023/10/26 07:25:05;;;;;;;;;;;;;;;27.12;36.97;99708.47;5052779;28;1997;-45
2023/10/26 07:27:30;;;;;;;;;;;;;;;28.00;36.50;99816.41;5056847;28;1040;-41
2023/10/26 07:29:56;;;;;;;;;;;;;;;27.81;36.34;99824.34;5056648;28;1158;-46
2023/10/26 07:32:22;;;;;;;;;;;;;;;27.91;36.30;99807.69;5056530;28;1040;-44
2023/10/26 07:34:47;;;;;;;;;;;;;;;27.53;36.86;99802.97;5053342;28;1040;-43
2023/10/26 07:37:13;;;;;;;;;;;;;;;27.38;37.21;99818.31;5037244;28;1131;-45
2023/10/26 07:39:38;;;;;;;;;;;;;;;27.14;37.71;99809.78;5053095;28;1099;-44
2023/10/26 07:42:04;;;;;;;;;;;;;;;27.34;37.29;99813.53;5037316;28;1148;-43
2023/10/26 07:44:31;;;;;;;;;;;;;;;26.88;38.44;99805.97;5039413;28;1083;-44
2023/10/26 07:46:57;;;;;;;;;;;;;;;27.04;37.80;99808.53;5051243;28;1988;-41
2023/10/26 07:49:22;;;;;;;;;;;;;;;27.79;36.21;99810.22;5038679;28;1159;-43
2023/10/26 07:51:49;;;;;;;;;;;;;;;27.66;36.78;99819.13;5036476;28;2431;-42
2023/10/26 07:54:15;;;;;;;;;;;;;;;27.66;36.63;99808.31;5046757;28;1149;-45
2023/10/26 07:56:40;;;;;;;;;;;;;;;27.24;37.71;99822.06;5034435;28;1012;-41
2023/10/26 07:59:06;;;;;;;;;;;;;;;26.81;38.54;99817.81;5046062;28;1315;-43
2023/10/26 08:01:31;;;;;;;;;;;;;;;27.01;38.00;99807.03;5031108;28;1076;-44
2023/10/26 08:03:57;;;;;;;;;;;;;;;27.83;36.81;99813.31;5046974;28;1052;-39
2023/10/26 08:06:23;;;;;;;;;;;;;;;27.91;36.44;99804.97;5036073;28;1975;-39
2023/10/26 08:08:48;;;;;;;;;;;;;;;27.82;36.54;99801.69;5046609;28;1151;-43
2023/10/26 08:11:14;;;;;;;;;;;;;;;27.62;37.39;99804.38;5047789;28;1102;-42
2023/10/26 08:13:40;;;;;;;;;;;;;;;27.24;37.66;99808.56;5049181;28;1171;-41
2023/10/26 08:16:05;;;;;;;;;;;;;;;27.24;37.53;99805.84;5055934;28;1040;-36
2023/10/26 08:18:31;;;;;;;;;;;;;;;27.07;37.67;99808.13;5064424;28;1037;-38
2023/10/26 08:20:56;;;;;;;;;;;;;;;26.93;38.08;99807.22;5062307;28;2241;-37
2023/10/26 08:23:22;;;;;;;;;;;;;;;26.95;37.94;99799.75;5062493;28;1039;-39
2023/10/26 08:25:48;;;;;;;;;;;;;;;27.19;37.65;99805.66;5056335;28;1914;-39
2023/10/26 08:28:13;;;;;;;;;;;;;;;27.49;36.81;99810.63;5055972;28;1100;-40
2023/10/26 08:30:39;;;;;;;;;;;;;;;27.89;36.30;99801.69;5056000;28;1036;-37
2023/10/26 08:33:04;;;;;;;;;;;;;;;28.17;35.45;99797.00;5060449;28;1262;-35
2023/10/26 08:35:30;;;;;;;;;;;;;;;28.04;35.35;99787.91;5074705;28;1375;-38
2023/10/26 08:37:56;;;;;;;;;;;;;;;28.20;35.26;99792.00;5054866;28;905;-35
2023/10/26 08:40:22;;;;;;;;;;;;;;;28.24;35.01;99782.41;5055681;28;1027;-35
2023/10/26 08:42:47;;;;;;;;;;;;;;;27.72;36.26;99785.91;5071754;28;1068;-33
2023/10/26 08:45:23;;;;;;;;;;;;;;;27.66;36.25;99788.59;5066552;28;1910;-35
2023/10/26 08:47:52;;;;;;;;;;;;;;;28.12;35.41;99792.25;5042609;28;1160;-36
2023/10/26 08:50:19;;;;;;;;;;;;;;;28.39;34.57;99796.75;5064289;28;1939;-37
2023/10/26 08:52:44;;;;;;;;;;;;;;;28.54;34.57;99796.47;5056233;28;1163;-42
2023/10/26 08:55:10;;;;;;;;;;;;;;;28.44;34.56;99802.34;5039871;28;1112;-41
2023/10/26 08:57:54;;;;;;;;;;;;;;;28.41;34.81;99802.78;5073742;28;1449;-41
2023/10/26 09:00:20;;;;;;;;;;;;;;;28.27;34.85;99802.81;5064472;28;1115;-41
2023/10/26 09:02:47;;;;;;;;;;;;;;;28.40;34.60;99796.53;5048517;28;1368;-42
2023/10/26 09:05:13;;;;;;;;;;;;;;;28.27;34.56;99797.41;5057148;28;1910;-40
2023/10/26 09:07:39;;;;;;;;;;;;;;;28.46;34.23;99792.16;5055862;28;1100;-40
2023/10/26 09:10:05;;;;;;;;;;;;;;;28.53;34.13;99781.31;5062823;28;1008;-40
2023/10/26 09:12:30;;;;;;;;;;;;;;;28.67;33.77;99787.44;5066559;28;1110;-40
2023/10/26 09:14:59;;;;;;;;;;;;;;;28.89;33.47;99779.00;5075200;28;1019;-36
2023/10/26 09:17:25;;;;;;;;;;;;;;;28.75;33.93;99772.81;5063983;28;914;-42
2023/10/26 09:19:51;;;;;;;;;;;;;;;29.16;33.02;99763.41;5035540;28;1936;-38
2023/10/26 09:22:16;;;;;;;;;;;;;;;29.21;32.72;99763.56;5039967;28;1130;-43
2023/10/26 09:24:42;;;;;;;;;;;;;;;29.45;32.47;99765.66;5044335;28;1977;-39
2023/10/26 09:27:16;;;;;;;;;;;;;;;29.53;32.08;99773.50;5052421;28;1317;-43
2023/10/26 09:29:41;;;;;;;;;;;;;;;29.56;32.11;99762.19;5050557;28;1080;-43
2023/10/26 09:32:07;;;;;;;;;;;;;;;29.62;32.18;99765.94;5038842;28;1009;-39
2023/10/26 09:34:44;;;;;;;;;;;;;;;29.52;32.14;99758.28;5042301;28;1307;-45
2023/10/26 09:37:11;;;;;;;;;;;;;;;29.51;31.86;99758.53;5045189;28;1350;-43
2023/10/26 09:39:37;;;;;;;;;;;;;;;29.43;32.16;99746.91;5038956;28;1186;-41
2023/10/26 09:42:05;;;;;;;;;;;;;;;29.82;31.55;99748.63;5058153;28;1049;-36
2023/10/26 09:44:31;;;;;;;;;;;;;;;29.49;32.05;99745.19;5052957;28;1267;-39
2023/10/26 09:46:56;;;;;;;;;;;;;;;30.03;30.92;99750.03;5056227;28;1918;-41
2023/10/26 09:49:22;;;;;;;;;;;;;;;29.73;31.26;99750.81;5055932;28;1381;-36
2023/10/26 09:51:48;;;;;;;;;;;;;;;29.68;30.90;99742.50;5039046;28;1088;-37
2023/10/26 09:54:13;;;;;;;;;;;;;;;29.84;30.76;99724.00;5052970;28;1104;-39
2023/10/26 09:56:39;;;;;;;;;;;;;;;29.78;30.75;99721.16;5058115;28;1138;-39
2023/10/26 09:59:05;;;;;;;;;;;;;;;29.99;29.80;99726.34;5032716;28;1073;-41
2023/10/26 10:01:32;;;;;;;;;;;;;;;29.96;30.26;99730.34;5032497;28;1577;-41
2023/10/26 10:03:58;;;;;;;;;;;;;;;29.67;31.00;99732.75;5046809;28;1087;-38
2023/10/26 10:06:41;;;;;;;;;;;;;;;29.78;31.18;99733.88;5049475;28;1910;-38
2023/10/26 10:09:07;;;;;;;;;;;;;;;29.82;30.74;99732.38;5041190;28;1211;-40
2023/10/26 10:11:32;;;;;;;;;;;;;;;29.90;30.81;99729.34;5049661;28;925;-40
2023/10/26 10:13:58;;;;;;;;;;;;;;;30.02;30.81;99715.03;5054063;28;993;-39
2023/10/26 10:16:46;;;;;;;;;;;;;;;30.21;30.42;99704.19;5057691;28;1112;-40
2023/10/26 10:19:21;;;;;;;;;;;;;;;30.11;30.64;99720.97;5050848;28;1448;-38
2023/10/26 10:21:48;;;;;;;;;;;;;;;30.16;30.50;99718.41;5057841;28;2278;-40
2023/10/26 10:24:46;;;;;;;;;;;;;;;29.37;31.63;99723.44;5059120;28;1063;-40
2023/10/26 10:27:18;;;;;;;;;;;;;;;29.37;32.04;99717.16;5019960;28;1246;-39
2023/10/26 10:29:43;;;;;;;;;;;;;;;29.52;31.64;99705.97;5074830;28;1080;-40
2023/10/26 10:32:10;;;;;;;;;;;;;;;29.81;31.11;99693.56;5062317;28;1111;-40
2023/10/26 10:34:43;;;;;;;;;;;;;;;29.91;30.70;99690.31;5061614;28;873;-39
2023/10/26 10:37:11;;;;;;;;;;;;;;;29.95;31.04;99693.41;5077906;28;1090;-41
2023/10/26 10:39:37;;;;;;;;;;;;;;;29.99;31.19;99693.78;5074442;28;1096;-42
2023/10/26 10:42:04;;;;;;;;;;;;;;;30.03;31.10;99686.88;5066177;28;1159;-40
2023/10/26 10:44:30;;;;;;;;;;;;;;;29.88;31.86;99677.22;5057730;28;1172;-41
2023/10/26 10:46:55;;;;;;;;;;;;;;;29.95;31.43;99666.31;5045704;28;1965;-41
2023/10/26 10:49:23;;;;;;;;;;;;;;;29.72;31.61;99664.31;5059476;28;1039;-39
2023/10/26 10:51:49;;;;;;;;;;;;;;;30.05;31.08;99665.75;5064621;28;924;-41
2023/10/26 10:54:17;;;;;;;;;;;;;;;29.80;30.80;99669.41;5062963;28;1012;-42
2023/10/26 10:56:43;;;;;;;;;;;;;;;29.97;29.86;99666.91;5057207;28;1008;-40
2023/10/26 10:59:18;;;;;;;;;;;;;;;29.89;29.32;99665.34;5065648;28;861;-41
2023/10/26 11:01:44;;;;;;;;;;;;;;;29.93;28.88;99665.69;5063189;28;1103;-40
2023/10/26 11:04:12;;;;;;;;;;;;;;;29.48;28.69;99656.81;5076817;28;1211;-38
2023/10/26 11:06:49;;;;;;;;;;;;;;;29.74;27.81;99660.31;5057957;28;1914;-37
2023/10/26 11:09:25;;;;;;;;;;;;;;;29.72;27.59;99659.72;5059729;28;1327;-40
2023/10/26 11:11:50;;;;;;;;;;;;;;;30.13;27.20;99665.44;5063182;28;1164;-40
2023/10/26 11:14:17;;;;;;;;;;;;;;;30.36;26.83;99649.50;5074806;28;1317;-39
2023/10/26 11:16:43;;;;;;;;;;;;;;;30.72;26.00;99655.00;5072915;28;1155;-39
2023/10/26 11:19:09;;;;;;;;;;;;;;;30.61;26.26;99641.19;5043016;28;1104;-36
2023/10/26 11:21:34;;;;;;;;;;;;;;;30.50;26.39;99639.25;5042377;28;2347;-37
2023/10/26 11:24:00;;;;;;;;;;;;;;;29.98;27.08;99635.22;5048730;28;1035;-36
2023/10/26 11:26:26;;;;;;;;;;;;;;;30.33;26.78;99628.28;5037416;28;1918;-41
2023/10/26 11:28:51;;;;;;;;;;;;;;;30.38;27.67;99625.69;5037306;28;1084;-40
2023/10/26 11:31:33;;;;;;;;;;;;;;;30.24;28.42;99634.03;5036802;28;1036;-44
2023/10/26 11:34:01;;;;;;;;;;;;;;;30.34;28.51;99627.19;5037073;28;1012;-41
2023/10/26 11:36:27;;;;;;;;;;;;;;;30.37;28.44;99624.03;5048984;28;1104;-41
2023/10/26 11:38:53;;;;;;;;;;;;;;;30.46;28.61;99619.94;5036662;28;1294;-41
2023/10/26 11:41:20;;;;;;;;;;;;;;;30.62;28.45;99623.84;5019858;28;1277;-41
2023/10/26 11:43:45;;;;;;;;;;;;;;;30.61;28.77;99624.06;5043306;28;1044;-42
2023/10/26 11:46:11;;;;;;;;;;;;;;;30.44;28.96;99619.31;5037433;28;1976;-42
2023/10/26 11:48:36;;;;;;;;;;;;;;;30.41;29.27;99628.75;5053749;28;1270;-41
2023/10/26 11:51:03;;;;;;;;;;;;;;;30.39;29.66;99638.19;5035868;28;2029;-41
2023/10/26 11:53:28;;;;;;;;;;;;;;;30.14;29.82;99639.97;5051286;28;1386;-42
2023/10/26 11:55:54;;;;;;;;;;;;;;;30.06;30.09;99637.59;5055293;28;1198;-42
2023/10/26 11:58:20;;;;;;;;;;;;;;;30.22;29.80;99636.13;5052623;28;1226;-42
2023/10/26 12:00:45;;;;;;;;;;;;;;;29.84;30.31;99634.56;5044188;28;1412;-41
2023/10/26 12:03:11;;;;;;;;;;;;;;;29.67;30.61;99629.75;5054421;28;1085;-43
2023/10/26 12:05:36;;;;;;;;;;;;;;;29.46;30.89;99629.16;5051901;28;1975;-42
2023/10/26 12:08:02;;;;;;;;;;;;;;;29.48;31.04;99632.44;5049916;28;1457;-40
2023/10/26 12:10:27;;;;;;;;;;;;;;;29.52;31.00;99621.97;5042631;28;1147;-45
2023/10/26 12:12:53;;;;;;;;;;;;;;;29.39;31.28;99620.25;5030475;28;1140;-42
2023/10/26 12:15:19;;;;;;;;;;;;;;;29.23;30.37;99619.00;5036337;28;1063;-43
2023/10/26 12:17:45;;;;;;;;;;;;;;;28.93;30.91;99629.44;5042531;28;1160;-45
2023/10/26 12:20:11;;;;;;;;;;;;;;;29.41;30.58;99623.59;5062194;28;1963;-43
2023/10/26 12:22:36;;;;;;;;;;;;;;;29.08;31.07;99609.34;5059044;28;1015;-43
2023/10/26 12:25:06;;;;;;;;;;;;;;;28.95;31.52;99611.09;5068336;28;1917;-43
2023/10/26 12:27:32;;;;;;;;;;;;;;;29.08;31.39;99620.16;5058129;28;1047;-44
2023/10/26 12:29:57;;;;;;;;;;;;;;;29.07;31.23;99621.22;5068770;28;1095;-42
2023/10/26 12:32:23;;;;;;;;;;;;;;;28.77;31.83;99614.59;5062750;28;1127;-43
2023/10/26 12:34:49;;;;;;;;;;;;;;;28.85;32.18;99605.38;5072177;28;1015;-43
2023/10/26 12:37:15;;;;;;;;;;;;;;;28.95;32.12;99612.97;5074917;28;1131;-42
2023/10/26 12:39:40;;;;;;;;;;;;;;;28.60;32.68;99611.63;5075585;28;1023;-44
2023/10/26 12:42:06;;;;;;;;;;;;;;;28.75;32.65;99607.75;5060299;28;1038;-43
2023/10/26 12:44:31;;;;;;;;;;;;;;;28.90;32.52;99612.81;5075558;28;1087;-45
2023/10/26 12:46:57;;;;;;;;;;;;;;;28.76;32.53;99617.53;5071658;28;1961;-43
2023/10/26 12:49:22;;;;;;;;;;;;;;;28.82;32.46;99613.94;5055635;28;1095;-41
2023/10/26 12:51:48;;;;;;;;;;;;;;;28.59;32.80;99608.06;5056347;28;937;-43